createdAt,value
2019-02-19T00:02:00.761Z,4.08
2019-02-19T00:04:41.828Z,3.37
2019-02-19T00:07:22.775Z,2.80
2019-02-19T00:10:03.628Z,3.75
2019-02-19T00:12:44.019Z,2.90
2019-02-19T00:15:24.499Z,3.37
2019-02-19T00:18:05.217Z,3.27
2019-02-19T00:20:45.735Z,2.55
2019-02-19T00:23:26.601Z,3.30
2019-02-19T00:26:07.180Z,2.08
2019-02-19T00:28:47.572Z,2.80
2019-02-19T00:31:28.255Z,3.08
2019-02-19T00:34:09.153Z,4.05
2019-02-19T00:36:49.693Z,5.25
2019-02-19T00:39:30.788Z,4.37
2019-02-19T00:42:11.503Z,4.95
2019-02-19T00:44:51.926Z,3.50
2019-02-19T00:47:32.705Z,3.10
2019-02-19T00:50:13.409Z,2.58
2019-02-19T00:52:53.884Z,3.90
2019-02-19T00:55:34.768Z,3.20
2019-02-19T00:58:15.146Z,3.83
2019-02-19T01:00:55.861Z,3.75
2019-02-19T01:03:35.984Z,4.78
2019-02-19T01:06:16.520Z,3.55
2019-02-19T01:08:57.072Z,2.30
2019-02-19T01:11:37.674Z,3.17
2019-02-19T01:14:18.772Z,2.85
2019-02-19T01:16:59.295Z,3.40
2019-02-19T01:19:39.504Z,3.77
2019-02-19T01:22:20.459Z,4.42
2019-02-19T01:25:01.217Z,3.58
2019-02-19T01:27:41.903Z,4.33
2019-02-19T01:30:22.635Z,3.85
2019-02-19T01:33:03.264Z,2.52
2019-02-19T01:35:43.891Z,3.30
2019-02-19T01:38:24.478Z,3.42
2019-02-19T01:41:04.771Z,3.83
2019-02-19T01:43:45.762Z,4.40
2019-02-19T01:46:26.583Z,4.58
2019-02-19T01:49:07.187Z,2.77
2019-02-19T01:51:48.127Z,3.60
2019-02-19T01:54:28.875Z,4.33
2019-02-19T01:57:09.403Z,3.65
2019-02-19T01:59:50.291Z,3.85
2019-02-19T02:02:30.699Z,5.50
2019-02-19T02:05:11.072Z,2.80
2019-02-19T02:07:51.483Z,3.95
2019-02-19T02:10:32.320Z,4.03
2019-02-19T02:13:13.205Z,4.50
2019-02-19T02:15:53.788Z,5.95
2019-02-19T02:18:34.227Z,5.25
2019-02-19T02:21:14.834Z,4.10
2019-02-19T02:23:55.297Z,3.62
2019-02-19T02:26:35.653Z,3.92
2019-02-19T02:29:16.247Z,3.98
2019-02-19T02:31:56.719Z,3.50
2019-02-19T02:34:37.500Z,3.10
2019-02-19T02:37:18.461Z,3.50
2019-02-19T02:39:59.235Z,3.80
2019-02-19T02:42:39.954Z,4.37
2019-02-19T02:45:20.394Z,3.95
2019-02-19T02:48:01.281Z,3.50
2019-02-19T02:50:42.280Z,3.47
2019-02-19T02:53:23.384Z,4.08
2019-02-19T02:56:03.908Z,4.85
2019-02-19T02:58:44.371Z,3.20
2019-02-19T03:01:24.905Z,4.00
2019-02-19T03:04:05.400Z,4.08
2019-02-19T03:06:50.295Z,4.00
2019-02-19T03:09:31.024Z,3.75
2019-02-19T03:12:11.399Z,4.33
2019-02-19T03:14:51.887Z,3.60
2019-02-19T03:17:32.851Z,3.80
2019-02-19T03:20:13.339Z,3.83
2019-02-19T03:22:53.851Z,4.05
2019-02-19T03:25:34.452Z,3.45
2019-02-19T03:28:15.307Z,3.02
2019-02-19T03:30:56.236Z,3.90
2019-02-19T03:33:36.631Z,4.58
2019-02-19T03:36:17.570Z,2.75
2019-02-19T03:38:58.000Z,3.92
2019-02-19T03:41:38.811Z,4.40
2019-02-19T03:44:19.027Z,3.55
2019-02-19T03:46:59.991Z,3.70
2019-02-19T03:49:40.702Z,3.33
2019-02-19T03:52:21.230Z,3.60
2019-02-19T03:55:01.931Z,3.80
2019-02-19T03:57:42.315Z,3.12
2019-02-19T04:00:22.887Z,3.98
2019-02-19T04:03:03.672Z,4.00
2019-02-19T04:05:44.051Z,3.58
2019-02-19T04:08:24.676Z,3.55
2019-02-19T04:11:05.517Z,4.28
2019-02-19T04:13:46.044Z,3.65
2019-02-19T04:16:27.079Z,3.72
2019-02-19T04:19:07.383Z,2.83
2019-02-19T04:21:48.321Z,2.75
2019-02-19T04:24:29.027Z,2.90
2019-02-19T04:27:10.113Z,3.42
2019-02-19T04:29:50.836Z,4.10
2019-02-19T04:32:31.659Z,3.52
2019-02-19T04:35:12.451Z,3.98
2019-02-19T04:37:52.852Z,3.90
2019-02-19T04:40:33.696Z,4.20
2019-02-19T04:43:14.132Z,3.27
2019-02-19T04:45:54.527Z,3.70
2019-02-19T04:48:35.060Z,3.83
2019-02-19T04:51:15.797Z,2.92
2019-02-19T04:53:56.388Z,3.52
2019-02-19T04:56:37.230Z,4.75
2019-02-19T04:59:18.003Z,4.05
2019-02-19T05:01:58.657Z,4.83
2019-02-19T05:04:39.093Z,5.20
2019-02-19T05:07:19.696Z,3.80
2019-02-19T05:10:00.393Z,3.95
2019-02-19T05:12:41.037Z,4.60
2019-02-19T05:15:21.508Z,3.05
2019-02-19T05:18:02.139Z,3.90
2019-02-19T05:20:43.055Z,3.67
2019-02-19T05:23:23.857Z,3.90
2019-02-19T05:26:04.519Z,3.33
2019-02-19T05:28:44.922Z,2.62
2019-02-19T05:31:25.450Z,3.37
2019-02-19T05:34:06.277Z,3.52
2019-02-19T05:36:47.165Z,3.60
2019-02-19T05:39:28.072Z,4.72
2019-02-19T05:42:09.007Z,4.83
2019-02-19T05:44:49.672Z,4.00
2019-02-19T05:47:30.362Z,3.50
2019-02-19T05:50:11.262Z,3.58
2019-02-19T05:52:52.308Z,3.80
2019-02-19T05:55:32.628Z,4.25
2019-02-19T05:58:13.423Z,4.12
2019-02-19T06:00:54.043Z,6.10
2019-02-19T06:03:35.022Z,4.20
2019-02-19T06:06:15.821Z,4.08
2019-02-19T06:08:56.855Z,4.50
2019-02-19T06:11:37.683Z,3.20
2019-02-19T06:14:18.423Z,4.97
2019-02-19T06:16:59.084Z,5.67
2019-02-19T06:19:40.140Z,4.72
2019-02-19T06:22:20.524Z,4.70
2019-02-19T06:25:01.207Z,3.62
2019-02-19T06:27:41.879Z,4.55
2019-02-19T06:30:22.656Z,4.70
2019-02-19T06:33:03.775Z,3.30
2019-02-19T06:35:44.604Z,4.10
2019-02-19T06:38:25.491Z,3.85
2019-02-19T06:41:06.278Z,3.27
2019-02-19T06:43:47.118Z,3.67
2019-02-19T06:46:27.680Z,2.98
2019-02-19T06:49:08.120Z,3.65
2019-02-19T06:51:48.772Z,4.05
2019-02-19T06:54:29.644Z,4.12
2019-02-19T06:57:10.223Z,4.00
2019-02-19T06:59:51.412Z,4.00
2019-02-19T07:02:33.793Z,3.33
2019-02-19T07:05:16.029Z,2.87
2019-02-19T07:07:57.183Z,5.70
2019-02-19T07:10:37.852Z,3.67
2019-02-19T07:13:18.397Z,4.15
2019-02-19T07:15:58.863Z,3.80
2019-02-19T07:18:39.689Z,3.55
2019-02-19T07:21:20.975Z,5.55
2019-02-19T07:24:04.607Z,5.72
2019-02-19T07:26:44.943Z,4.00
2019-02-19T07:29:26.101Z,3.60
2019-02-19T07:32:06.276Z,4.37
2019-02-19T07:34:46.455Z,4.83
2019-02-19T07:37:27.315Z,4.67
2019-02-19T07:40:08.163Z,3.83
2019-02-19T07:42:48.979Z,4.42
2019-02-19T07:45:29.480Z,5.12
2019-02-19T07:48:09.772Z,4.65
2019-02-19T07:50:51.061Z,5.97
2019-02-19T07:53:32.263Z,4.87
2019-02-19T07:56:12.939Z,6.17
2019-02-19T07:58:54.060Z,5.15
2019-02-19T08:01:34.542Z,4.87
2019-02-19T08:04:15.412Z,4.03
2019-02-19T08:06:56.179Z,5.78
2019-02-19T08:09:37.091Z,4.20
2019-02-19T08:12:17.831Z,4.55
2019-02-19T08:14:59.032Z,5.17
2019-02-19T08:17:39.595Z,4.05
2019-02-19T08:20:20.611Z,5.15
2019-02-19T08:23:01.576Z,4.15
2019-02-19T08:25:42.642Z,5.00
2019-02-19T08:28:23.615Z,5.10
2019-02-19T08:31:04.399Z,6.30
2019-02-19T08:33:45.295Z,4.37
2019-02-19T08:36:26.091Z,5.50
2019-02-19T08:39:06.692Z,5.37
2019-02-19T08:41:46.852Z,5.05
2019-02-19T08:44:27.203Z,4.30
2019-02-19T08:47:07.870Z,4.60
2019-02-19T08:49:48.688Z,4.78
2019-02-19T08:52:29.567Z,4.70
2019-02-19T08:55:10.187Z,4.85
2019-02-19T08:57:50.932Z,4.72
2019-02-19T09:00:31.185Z,5.75
2019-02-19T09:03:11.576Z,4.95
2019-02-19T09:05:52.254Z,5.00
2019-02-19T09:08:34.381Z,6.15
2019-02-19T09:11:14.707Z,5.62
2019-02-19T09:13:55.412Z,5.12
2019-02-19T09:16:35.656Z,6.05
2019-02-19T09:19:16.215Z,5.72
2019-02-19T09:21:56.485Z,6.08
2019-02-19T09:24:37.168Z,5.50
2019-02-19T09:27:17.704Z,5.17
2019-02-19T09:29:58.343Z,6.05
2019-02-19T09:32:39.037Z,6.30
2019-02-19T09:35:20.160Z,5.90
2019-02-19T09:38:00.776Z,5.60
2019-02-19T09:40:41.376Z,5.60
2019-02-19T09:43:21.937Z,5.45
2019-02-19T09:46:02.109Z,5.55
2019-02-19T09:48:42.613Z,6.53
2019-02-19T09:51:23.054Z,7.05
2019-02-19T09:54:03.576Z,6.83
2019-02-19T09:56:44.162Z,5.80
2019-02-19T09:59:24.696Z,7.08
2019-02-19T10:02:05.600Z,6.75
2019-02-19T10:04:46.248Z,6.35
2019-02-19T10:07:26.657Z,7.10
2019-02-19T10:10:07.147Z,6.85
2019-02-19T10:12:47.604Z,4.70
2019-02-19T10:15:28.147Z,6.58
2019-02-19T10:18:10.492Z,5.40
2019-02-19T10:20:51.915Z,6.22
2019-02-19T10:23:32.932Z,5.90
2019-02-19T10:26:13.447Z,5.28
2019-02-19T10:28:54.448Z,5.12
2019-02-19T10:31:34.825Z,5.67
2019-02-19T10:34:15.502Z,5.42
2019-02-19T10:36:55.940Z,6.60
2019-02-19T10:39:36.575Z,4.90
2019-02-19T10:42:18.975Z,6.10
2019-02-19T10:44:59.788Z,5.67
2019-02-19T10:47:40.704Z,5.40
2019-02-19T10:50:21.600Z,4.70
2019-02-19T10:53:02.212Z,6.03
2019-02-19T10:55:42.635Z,5.60
2019-02-19T10:58:23.391Z,5.15
2019-02-19T11:01:04.443Z,5.62
2019-02-19T11:03:44.872Z,5.67
2019-02-19T11:06:25.732Z,6.17
2019-02-19T11:09:06.687Z,5.47
2019-02-19T11:11:47.505Z,5.10
2019-02-19T11:14:28.747Z,5.75
2019-02-19T11:17:09.293Z,5.42
2019-02-19T11:19:50.147Z,5.95
2019-02-19T11:22:30.754Z,6.25
2019-02-19T11:25:12.101Z,5.42
2019-02-19T11:27:52.812Z,5.53
2019-02-19T11:30:33.285Z,4.78
2019-02-19T11:33:13.951Z,4.87
2019-02-19T11:35:54.999Z,5.60
2019-02-19T11:38:35.771Z,4.62
2019-02-19T11:41:15.972Z,4.40
2019-02-19T11:43:56.500Z,5.35
2019-02-19T11:46:36.956Z,5.28
2019-02-19T11:49:17.383Z,4.90
2019-02-19T11:51:57.959Z,4.40
2019-02-19T11:54:38.155Z,5.30
2019-02-19T11:57:18.569Z,4.72
2019-02-19T11:59:58.951Z,4.50
2019-02-19T12:02:39.416Z,4.40
2019-02-19T12:05:20.533Z,4.75
2019-02-19T12:08:01.225Z,4.67
2019-02-19T12:10:41.896Z,5.67
2019-02-19T12:13:22.844Z,4.25
2019-02-19T12:16:03.919Z,4.05
2019-02-19T12:18:46.469Z,4.50
2019-02-19T12:21:27.012Z,4.20
2019-02-19T12:24:07.607Z,3.45
2019-02-19T12:26:47.956Z,4.37
2019-02-19T12:29:28.440Z,4.92
2019-02-19T12:32:09.031Z,4.05
2019-02-19T12:34:49.767Z,3.42
2019-02-19T12:37:30.216Z,4.97
2019-02-19T12:40:10.960Z,3.80
2019-02-19T12:42:51.620Z,3.20
2019-02-19T12:45:31.994Z,3.25
2019-02-19T12:48:12.275Z,3.10
2019-02-19T12:50:52.820Z,3.27
2019-02-19T12:53:33.224Z,2.75
2019-02-19T12:56:13.760Z,3.08
2019-02-19T12:58:54.475Z,3.00
2019-02-19T13:01:34.984Z,2.47
2019-02-19T13:04:15.565Z,2.58
2019-02-19T13:06:56.424Z,3.12
2019-02-19T13:09:36.577Z,2.72
2019-02-19T13:12:17.402Z,2.65
2019-02-19T13:14:58.476Z,2.60
2019-02-19T13:17:39.008Z,2.50
2019-02-19T13:20:19.651Z,3.40
2019-02-19T13:23:00.387Z,2.00
2019-02-19T13:25:41.543Z,2.83
2019-02-19T13:28:22.512Z,2.60
2019-02-19T13:31:02.728Z,2.65
2019-02-19T13:33:43.460Z,3.17
2019-02-19T13:36:24.263Z,2.58
2019-02-19T13:39:04.716Z,2.30
2019-02-19T13:41:45.284Z,2.65
2019-02-19T13:44:25.923Z,2.05
2019-02-19T13:47:06.988Z,1.67
2019-02-19T13:49:47.435Z,2.15
2019-02-19T13:52:29.716Z,1.90
2019-02-19T13:55:12.024Z,2.30
2019-02-19T13:57:53.143Z,2.17
2019-02-19T14:00:35.544Z,1.85
2019-02-19T14:03:16.431Z,1.80
2019-02-19T14:05:57.310Z,1.27
2019-02-19T14:08:37.996Z,1.85
2019-02-19T14:11:18.531Z,1.80
2019-02-19T14:14:00.636Z,1.70
2019-02-19T14:16:43.491Z,1.20
2019-02-19T14:19:26.088Z,1.40
2019-02-19T14:25:33.513Z,1.90
2019-02-19T14:28:33.360Z,1.60
2019-02-19T14:31:15.861Z,1.98
2019-02-19T14:33:58.583Z,2.00
2019-02-19T14:39:45.963Z,1.95
2019-02-19T14:42:31.240Z,1.87
2019-02-19T14:45:13.961Z,1.87
2019-02-19T14:48:13.516Z,2.27
2019-02-19T14:56:43.777Z,1.92
2019-02-19T14:59:28.424Z,2.70
2019-02-19T15:02:11.422Z,1.80
2019-02-19T15:05:18.362Z,1.47
2019-02-19T15:08:25.328Z,1.75
2019-02-19T15:11:32.240Z,2.10
2019-02-19T15:14:39.372Z,1.75
2019-02-19T15:20:44.780Z,1.57
2019-02-19T15:23:51.683Z,1.20
2019-02-19T15:26:58.607Z,1.98
2019-02-19T15:30:05.750Z,1.17
2019-02-19T15:39:07.999Z,1.57
2019-02-19T15:42:14.915Z,2.10
2019-02-19T15:45:21.816Z,1.62
2019-02-19T15:48:23.326Z,1.85
2019-02-19T15:51:08.589Z,1.80
2019-02-19T15:53:53.131Z,1.57
2019-02-19T15:56:55.804Z,1.52
2019-02-19T15:59:41.139Z,1.40
2019-02-19T16:02:42.055Z,1.60
2019-02-19T16:08:35.097Z,1.40
2019-02-19T16:11:17.889Z,1.35
2019-02-19T16:14:19.280Z,1.35
2019-02-19T16:20:06.752Z,1.40
2019-02-19T16:22:51.818Z,1.70
2019-02-19T16:25:52.982Z,1.70
2019-02-19T16:28:55.703Z,2.00
2019-02-19T16:34:45.447Z,1.60
2019-02-19T16:37:27.915Z,1.37
2019-02-19T16:40:29.243Z,1.60
2019-02-19T16:43:11.956Z,1.60
2019-02-19T16:46:12.299Z,1.55
2019-02-19T16:49:13.108Z,2.85
2019-02-19T16:51:56.019Z,3.10
2019-02-19T16:54:38.595Z,1.55
2019-02-19T16:57:24.344Z,2.15
2019-02-19T17:00:03.045Z,1.95
2019-02-19T17:02:33.284Z,1.95
2019-02-19T17:05:42.334Z,1.92
2019-02-19T17:11:57.344Z,2.50
2019-02-19T17:15:04.497Z,1.85
2019-02-19T17:21:20.140Z,1.87
2019-02-19T17:24:27.040Z,1.60
2019-02-19T17:33:23.659Z,1.65
2019-02-19T17:36:30.809Z,1.32
2019-02-19T17:39:37.948Z,1.80
2019-02-19T17:45:39.575Z,1.75
2019-02-19T17:51:31.792Z,1.70
2019-02-19T17:54:16.992Z,2.27
2019-02-19T17:56:59.534Z,1.80
2019-02-19T17:59:44.356Z,1.92
2019-02-19T18:02:45.590Z,1.80
2019-02-19T18:05:31.268Z,1.98
2019-02-19T18:14:18.958Z,1.60
2019-02-19T18:19:53.808Z,2.12
2019-02-19T18:22:34.733Z,1.77
2019-02-19T18:25:15.336Z,2.25
2019-02-19T18:27:56.065Z,2.08
2019-02-19T18:30:36.825Z,3.00
2019-02-19T18:33:17.483Z,2.42
2019-02-19T18:35:58.379Z,2.75
2019-02-19T18:38:39.375Z,1.82
2019-02-19T18:41:19.863Z,1.92
2019-02-19T18:44:00.459Z,1.98
2019-02-19T18:46:40.633Z,2.37
2019-02-19T18:49:24.629Z,1.90
2019-02-19T18:52:04.920Z,2.50
2019-02-19T18:54:45.808Z,2.52
2019-02-19T18:57:26.380Z,2.05
2019-02-19T19:00:07.367Z,1.90
2019-02-19T19:02:48.264Z,1.92
2019-02-19T19:05:28.931Z,1.37
2019-02-19T19:08:09.208Z,2.02
2019-02-19T19:10:49.724Z,1.62
2019-02-19T19:13:30.747Z,1.77
2019-02-19T19:16:11.286Z,1.50
2019-02-19T19:18:51.628Z,1.50
2019-02-19T19:21:32.238Z,1.60
2019-02-19T19:24:13.020Z,1.62
2019-02-19T19:26:53.916Z,2.47
2019-02-19T19:29:34.844Z,2.22
2019-02-19T19:32:15.500Z,1.40
2019-02-19T19:34:56.668Z,2.52
2019-02-19T19:37:37.648Z,2.20
2019-02-19T19:40:18.375Z,2.77
2019-02-19T19:42:59.227Z,1.95
2019-02-19T19:45:39.875Z,1.50
2019-02-19T19:48:20.362Z,2.50
2019-02-19T19:51:01.264Z,2.20
2019-02-19T19:53:41.954Z,2.40
2019-02-19T19:56:22.778Z,2.02
2019-02-19T19:59:03.363Z,2.60
2019-02-19T20:01:43.892Z,2.47
2019-02-19T20:04:24.561Z,2.60
2019-02-19T20:07:05.096Z,2.75
2019-02-19T20:09:45.776Z,3.20
2019-02-19T20:12:26.387Z,3.50
2019-02-19T20:15:07.075Z,4.72
2019-02-19T20:17:47.536Z,3.40
2019-02-19T20:20:28.397Z,3.02
2019-02-19T20:23:09.082Z,3.22
2019-02-19T20:25:50.004Z,3.40
2019-02-19T20:28:31.107Z,3.37
2019-02-19T20:31:11.600Z,3.17
2019-02-19T20:33:52.184Z,2.80
2019-02-19T20:36:32.690Z,2.62
2019-02-19T20:39:13.701Z,2.98
2019-02-19T20:41:53.978Z,2.98
2019-02-19T20:44:34.476Z,2.30
2019-02-19T20:47:15.216Z,1.75
2019-02-19T20:49:56.363Z,3.75
2019-02-19T20:52:37.481Z,3.42
2019-02-19T20:55:18.150Z,3.40
2019-02-19T20:57:58.632Z,2.58
2019-02-19T21:00:39.422Z,2.92
2019-02-19T21:03:19.951Z,2.72
2019-02-19T21:06:00.743Z,2.90
2019-02-19T21:08:41.626Z,3.98
2019-02-19T21:11:22.484Z,3.72
2019-02-19T21:14:02.863Z,3.35
2019-02-19T21:16:43.519Z,3.92
2019-02-19T21:19:23.826Z,2.17
2019-02-19T21:22:04.700Z,4.60
2019-02-19T21:24:45.283Z,3.72
2019-02-19T21:27:26.391Z,3.30
2019-02-19T21:30:07.055Z,2.55
2019-02-19T21:32:47.378Z,5.35
2019-02-19T21:35:27.932Z,3.72
2019-02-19T21:38:08.194Z,3.00
2019-02-19T21:40:49.003Z,2.70
2019-02-19T21:43:30.321Z,2.77
2019-02-19T21:46:11.133Z,3.05
2019-02-19T21:48:51.832Z,3.58
2019-02-19T21:51:32.226Z,2.62
2019-02-19T21:54:13.032Z,1.42
2019-02-19T21:56:53.837Z,3.58
2019-02-19T21:59:34.188Z,2.45
2019-02-19T22:02:16.565Z,3.75
2019-02-19T22:04:56.995Z,2.47
2019-02-19T22:07:37.683Z,2.50
2019-02-19T22:10:18.884Z,3.17
2019-02-19T22:12:59.385Z,2.25
2019-02-19T22:15:40.051Z,2.58
2019-02-19T22:18:21.099Z,2.25
2019-02-19T22:21:05.785Z,2.77
2019-02-19T22:23:45.966Z,3.87
2019-02-19T22:26:26.797Z,4.45
2019-02-19T22:29:07.439Z,2.30
2019-02-19T22:31:48.393Z,2.17
2019-02-19T22:34:28.740Z,2.85
2019-02-19T22:37:09.324Z,2.87
2019-02-19T22:39:49.707Z,3.47
2019-02-19T22:42:30.156Z,3.50
2019-02-19T22:45:10.612Z,2.80
2019-02-19T22:47:53.403Z,3.67
2019-02-19T22:50:33.935Z,2.98
2019-02-19T22:53:33.792Z,2.58
2019-02-19T22:59:21.944Z,2.52
2019-02-19T23:02:04.252Z,2.55
2019-02-19T23:04:44.943Z,3.55
2019-02-19T23:07:25.439Z,3.35
2019-02-19T23:10:06.343Z,4.22
2019-02-19T23:12:46.929Z,2.35
2019-02-19T23:15:27.583Z,3.02
2019-02-19T23:18:08.109Z,3.83
2019-02-19T23:20:48.963Z,2.70
2019-02-19T23:23:29.644Z,2.85
2019-02-19T23:26:10.383Z,2.70
2019-02-19T23:28:50.860Z,3.47
2019-02-19T23:31:31.544Z,2.50
2019-02-19T23:34:12.008Z,2.72
2019-02-19T23:36:54.158Z,2.75
2019-02-19T23:39:43.192Z,3.05
2019-02-19T23:42:17.046Z,3.45
2019-02-19T23:44:57.867Z,1.87
2019-02-19T23:47:38.335Z,2.45
2019-02-19T23:50:18.847Z,2.45
2019-02-19T23:52:59.440Z,2.58
2019-02-19T23:55:40.056Z,2.90
2019-02-19T23:58:22.269Z,3.05
